sensor_id;sensor_type;location;lat;lon;timestamp;P1;durP1;ratioP1;P2;durP2;ratioP2
27822;SDS011;29019;47.630;8.262;2024-01-30T00:02:44;1.00;;;0.90;;
27822;SDS011;29019;47.630;8.262;2024-01-30T00:06:45;6.45;;;1.52;;
27822;SDS011;29019;47.630;8.262;2024-01-30T00:10:46;1.25;;;1.02;;
27822;SDS011;29019;47.630;8.262;2024-01-30T00:14:47;1.15;;;1.05;;
27822;SDS011;29019;47.630;8.262;2024-01-30T00:18:48;1.15;;;0.90;;
27822;SDS011;29019;47.630;8.262;2024-01-30T00:22:49;1.20;;;1.10;;
27822;SDS011;29019;47.630;8.262;2024-01-30T00:26:50;1.55;;;1.15;;
27822;SDS011;29019;47.630;8.262;2024-01-30T00:30:51;1.05;;;1.00;;
27822;SDS011;29019;47.630;8.262;2024-01-30T00:34:51;1.20;;;0.80;;
27822;SDS011;29019;47.630;8.262;2024-01-30T00:38:52;1.48;;;1.10;;
27822;SDS011;29019;47.630;8.262;2024-01-30T00:42:53;5.70;;;0.90;;
27822;SDS011;29019;47.630;8.262;2024-01-30T00:46:53;0.88;;;0.80;;
27822;SDS011;29019;47.630;8.262;2024-01-30T00:50:54;1.88;;;1.10;;
27822;SDS011;29019;47.630;8.262;2024-01-30T00:54:55;1.33;;;0.93;;
27822;SDS011;29019;47.630;8.262;2024-01-30T00:58:55;2.47;;;1.37;;
27822;SDS011;29019;47.630;8.262;2024-01-30T01:02:56;1.33;;;0.93;;
27822;SDS011;29019;47.630;8.262;2024-01-30T01:06:57;0.93;;;0.90;;
27822;SDS011;29019;47.630;8.262;2024-01-30T01:10:58;0.90;;;0.90;;
27822;SDS011;29019;47.630;8.262;2024-01-30T01:14:58;1.23;;;1.10;;
27822;SDS011;29019;47.630;8.262;2024-01-30T01:18:59;2.90;;;0.95;;
27822;SDS011;29019;47.630;8.262;2024-01-30T01:23:00;1.63;;;1.15;;
27822;SDS011;29019;47.630;8.262;2024-01-30T01:27:01;1.08;;;0.98;;
27822;SDS011;29019;47.630;8.262;2024-01-30T01:31:01;0.70;;;0.70;;
27822;SDS011;29019;47.630;8.262;2024-01-30T01:35:05;1.40;;;0.88;;
27822;SDS011;29019;47.630;8.262;2024-01-30T01:39:06;1.00;;;0.98;;
27822;SDS011;29019;47.630;8.262;2024-01-30T01:43:06;1.50;;;0.93;;
27822;SDS011;29019;47.630;8.262;2024-01-30T01:47:07;1.10;;;1.00;;
27822;SDS011;29019;47.630;8.262;2024-01-30T01:51:08;1.10;;;1.00;;
27822;SDS011;29019;47.630;8.262;2024-01-30T01:55:09;1.13;;;0.80;;
27822;SDS011;29019;47.630;8.262;2024-01-30T01:59:11;1.95;;;0.80;;
27822;SDS011;29019;47.630;8.262;2024-01-30T02:03:12;1.60;;;1.00;;
27822;SDS011;29019;47.630;8.262;2024-01-30T02:07:16;1.00;;;0.90;;
27822;SDS011;29019;47.630;8.262;2024-01-30T02:11:17;1.88;;;1.10;;
27822;SDS011;29019;47.630;8.262;2024-01-30T02:15:19;1.08;;;0.85;;
27822;SDS011;29019;47.630;8.262;2024-01-30T02:19:20;1.20;;;1.10;;
27822;SDS011;29019;47.630;8.262;2024-01-30T02:23:22;1.92;;;1.17;;
27822;SDS011;29019;47.630;8.262;2024-01-30T02:27:27;1.58;;;1.00;;
27822;SDS011;29019;47.630;8.262;2024-01-30T02:31:28;1.88;;;1.10;;
27822;SDS011;29019;47.630;8.262;2024-01-30T02:35:30;1.33;;;0.90;;
27822;SDS011;29019;47.630;8.262;2024-01-30T02:39:31;1.20;;;1.00;;
27822;SDS011;29019;47.630;8.262;2024-01-30T02:43:31;2.00;;;0.90;;
27822;SDS011;29019;47.630;8.262;2024-01-30T02:47:32;1.23;;;1.13;;
27822;SDS011;29019;47.630;8.262;2024-01-30T02:51:33;3.78;;;1.65;;
27822;SDS011;29019;47.630;8.262;2024-01-30T02:55:33;1.63;;;1.10;;
27822;SDS011;29019;47.630;8.262;2024-01-30T03:03:36;1.05;;;0.93;;
27822;SDS011;29019;47.630;8.262;2024-01-30T03:07:37;1.13;;;1.00;;
27822;SDS011;29019;47.630;8.262;2024-01-30T03:11:37;2.17;;;0.68;;
27822;SDS011;29019;47.630;8.262;2024-01-30T03:15:38;1.48;;;0.90;;
27822;SDS011;29019;47.630;8.262;2024-01-30T03:19:39;1.60;;;1.10;;
27822;SDS011;29019;47.630;8.262;2024-01-30T03:23:39;0.93;;;0.80;;
27822;SDS011;29019;47.630;8.262;2024-01-30T03:27:40;1.02;;;0.90;;
27822;SDS011;29019;47.630;8.262;2024-01-30T03:31:41;0.90;;;0.85;;
27822;SDS011;29019;47.630;8.262;2024-01-30T03:35:41;0.80;;;0.80;;
27822;SDS011;29019;47.630;8.262;2024-01-30T03:39:42;1.02;;;0.93;;
27822;SDS011;29019;47.630;8.262;2024-01-30T03:43:43;0.67;;;0.67;;
27822;SDS011;29019;47.630;8.262;2024-01-30T03:47:44;1.10;;;1.00;;
27822;SDS011;29019;47.630;8.262;2024-01-30T03:51:45;0.80;;;0.80;;
27822;SDS011;29019;47.630;8.262;2024-01-30T03:55:47;0.88;;;0.75;;
27822;SDS011;29019;47.630;8.262;2024-01-30T03:59:48;0.90;;;0.75;;
27822;SDS011;29019;47.630;8.262;2024-01-30T04:03:48;1.40;;;0.90;;
27822;SDS011;29019;47.630;8.262;2024-01-30T04:07:49;1.17;;;0.87;;
27822;SDS011;29019;47.630;8.262;2024-01-30T04:11:50;1.13;;;0.93;;
27822;SDS011;29019;47.630;8.262;2024-01-30T04:15:51;1.00;;;1.00;;
27822;SDS011;29019;47.630;8.262;2024-01-30T04:19:52;1.05;;;0.80;;
27822;SDS011;29019;47.630;8.262;2024-01-30T04:23:52;2.13;;;0.93;;
27822;SDS011;29019;47.630;8.262;2024-01-30T04:27:53;0.98;;;0.90;;
27822;SDS011;29019;47.630;8.262;2024-01-30T04:31:54;1.05;;;0.98;;
27822;SDS011;29019;47.630;8.262;2024-01-30T04:35:55;0.90;;;0.80;;
27822;SDS011;29019;47.630;8.262;2024-01-30T04:39:56;0.93;;;0.90;;
27822;SDS011;29019;47.630;8.262;2024-01-30T04:43:56;1.10;;;0.90;;
27822;SDS011;29019;47.630;8.262;2024-01-30T04:47:57;1.50;;;1.05;;
27822;SDS011;29019;47.630;8.262;2024-01-30T04:51:58;0.75;;;0.65;;
27822;SDS011;29019;47.630;8.262;2024-01-30T04:55:58;3.63;;;1.30;;
27822;SDS011;29019;47.630;8.262;2024-01-30T04:59:59;1.00;;;1.00;;
27822;SDS011;29019;47.630;8.262;2024-01-30T05:04:00;0.90;;;0.90;;
27822;SDS011;29019;47.630;8.262;2024-01-30T05:08:01;0.95;;;0.90;;
27822;SDS011;29019;47.630;8.262;2024-01-30T05:12:02;0.77;;;0.70;;
27822;SDS011;29019;47.630;8.262;2024-01-30T05:16:03;0.90;;;0.90;;
27822;SDS011;29019;47.630;8.262;2024-01-30T05:20:04;1.00;;;0.90;;
27822;SDS011;29019;47.630;8.262;2024-01-30T05:24:05;1.00;;;0.90;;
27822;SDS011;29019;47.630;8.262;2024-01-30T05:28:06;0.82;;;0.70;;
27822;SDS011;29019;47.630;8.262;2024-01-30T05:32:07;1.00;;;0.90;;
27822;SDS011;29019;47.630;8.262;2024-01-30T05:36:11;0.75;;;0.75;;
27822;SDS011;29019;47.630;8.262;2024-01-30T05:40:12;1.20;;;0.80;;
27822;SDS011;29019;47.630;8.262;2024-01-30T05:44:13;0.80;;;0.80;;
27822;SDS011;29019;47.630;8.262;2024-01-30T05:48:14;1.08;;;0.98;;
27822;SDS011;29019;47.630;8.262;2024-01-30T05:52:15;0.80;;;0.80;;
27822;SDS011;29019;47.630;8.262;2024-01-30T05:56:16;1.00;;;0.80;;
27822;SDS011;29019;47.630;8.262;2024-01-30T06:00:17;0.75;;;0.75;;
27822;SDS011;29019;47.630;8.262;2024-01-30T06:04:18;1.23;;;1.00;;
27822;SDS011;29019;47.630;8.262;2024-01-30T06:08:18;1.13;;;0.80;;
27822;SDS011;29019;47.630;8.262;2024-01-30T06:12:19;0.75;;;0.60;;
27822;SDS011;29019;47.630;8.262;2024-01-30T06:16:20;0.70;;;0.70;;
27822;SDS011;29019;47.630;8.262;2024-01-30T06:20:21;1.00;;;0.90;;
27822;SDS011;29019;47.630;8.262;2024-01-30T06:24:22;0.77;;;0.77;;
27822;SDS011;29019;47.630;8.262;2024-01-30T06:28:23;0.82;;;0.82;;
27822;SDS011;29019;47.630;8.262;2024-01-30T06:32:23;1.00;;;0.90;;
27822;SDS011;29019;47.630;8.262;2024-01-30T06:36:24;0.88;;;0.88;;
27822;SDS011;29019;47.630;8.262;2024-01-30T06:40:25;0.77;;;0.77;;
27822;SDS011;29019;47.630;8.262;2024-01-30T06:44:26;0.65;;;0.65;;
27822;SDS011;29019;47.630;8.262;2024-01-30T06:48:26;2.00;;;0.80;;
27822;SDS011;29019;47.630;8.262;2024-01-30T06:52:27;1.60;;;0.80;;
27822;SDS011;29019;47.630;8.262;2024-01-30T06:56:28;0.70;;;0.70;;
27822;SDS011;29019;47.630;8.262;2024-01-30T07:00:29;0.60;;;0.60;;
27822;SDS011;29019;47.630;8.262;2024-01-30T07:04:30;0.60;;;0.60;;
27822;SDS011;29019;47.630;8.262;2024-01-30T07:12:32;0.80;;;0.80;;
27822;SDS011;29019;47.630;8.262;2024-01-30T07:16:33;1.40;;;0.90;;
27822;SDS011;29019;47.630;8.262;2024-01-30T07:20:33;0.95;;;0.93;;
27822;SDS011;29019;47.630;8.262;2024-01-30T07:24:35;1.13;;;1.02;;
27822;SDS011;29019;47.630;8.262;2024-01-30T07:28:36;0.82;;;0.82;;
27822;SDS011;29019;47.630;8.262;2024-01-30T07:32:36;0.98;;;0.73;;
27822;SDS011;29019;47.630;8.262;2024-01-30T07:36:37;1.02;;;0.90;;
27822;SDS011;29019;47.630;8.262;2024-01-30T07:40:38;1.08;;;0.93;;
27822;SDS011;29019;47.630;8.262;2024-01-30T07:44:38;1.08;;;0.98;;
27822;SDS011;29019;47.630;8.262;2024-01-30T07:48:39;1.00;;;0.90;;
27822;SDS011;29019;47.630;8.262;2024-01-30T07:52:40;0.95;;;0.90;;
27822;SDS011;29019;47.630;8.262;2024-01-30T07:56:43;1.15;;;0.80;;
27822;SDS011;29019;47.630;8.262;2024-01-30T08:00:44;0.80;;;0.80;;
27822;SDS011;29019;47.630;8.262;2024-01-30T08:04:45;1.15;;;1.05;;
27822;SDS011;29019;47.630;8.262;2024-01-30T08:08:49;0.65;;;0.55;;
27822;SDS011;29019;47.630;8.262;2024-01-30T08:12:53;0.88;;;0.65;;
27822;SDS011;29019;47.630;8.262;2024-01-30T08:16:53;1.00;;;0.90;;
27822;SDS011;29019;47.630;8.262;2024-01-30T08:20:55;0.80;;;0.80;;
27822;SDS011;29019;47.630;8.262;2024-01-30T08:24:55;0.80;;;0.80;;
27822;SDS011;29019;47.630;8.262;2024-01-30T08:28:56;1.60;;;1.05;;
27822;SDS011;29019;47.630;8.262;2024-01-30T08:32:57;0.82;;;0.80;;
27822;SDS011;29019;47.630;8.262;2024-01-30T08:36:58;0.95;;;0.85;;
27822;SDS011;29019;47.630;8.262;2024-01-30T08:40:58;1.30;;;1.13;;
27822;SDS011;29019;47.630;8.262;2024-01-30T08:44:59;0.90;;;0.90;;
27822;SDS011;29019;47.630;8.262;2024-01-30T08:49:00;0.85;;;0.85;;
27822;SDS011;29019;47.630;8.262;2024-01-30T08:53:00;0.77;;;0.77;;
27822;SDS011;29019;47.630;8.262;2024-01-30T08:57:01;0.88;;;0.82;;
27822;SDS011;29019;47.630;8.262;2024-01-30T09:01:02;0.80;;;0.80;;
27822;SDS011;29019;47.630;8.262;2024-01-30T09:05:05;1.17;;;1.00;;
27822;SDS011;29019;47.630;8.262;2024-01-30T09:09:06;1.10;;;0.80;;
27822;SDS011;29019;47.630;8.262;2024-01-30T09:13:07;1.20;;;1.00;;
27822;SDS011;29019;47.630;8.262;2024-01-30T09:17:07;1.05;;;0.80;;
27822;SDS011;29019;47.630;8.262;2024-01-30T09:21:09;1.35;;;0.90;;
27822;SDS011;29019;47.630;8.262;2024-01-30T09:25:10;0.70;;;0.70;;
27822;SDS011;29019;47.630;8.262;2024-01-30T09:29:11;1.00;;;0.93;;
27822;SDS011;29019;47.630;8.262;2024-01-30T09:33:11;0.80;;;0.77;;
27822;SDS011;29019;47.630;8.262;2024-01-30T09:37:12;0.98;;;0.77;;
27822;SDS011;29019;47.630;8.262;2024-01-30T09:41:15;1.13;;;0.80;;
27822;SDS011;29019;47.630;8.262;2024-01-30T09:45:19;1.38;;;0.90;;
27822;SDS011;29019;47.630;8.262;2024-01-30T09:49:24;0.90;;;0.82;;
27822;SDS011;29019;47.630;8.262;2024-01-30T09:53:25;1.27;;;1.00;;
27822;SDS011;29019;47.630;8.262;2024-01-30T09:57:27;0.65;;;0.65;;
27822;SDS011;29019;47.630;8.262;2024-01-30T10:01:27;2.20;;;1.00;;
27822;SDS011;29019;47.630;8.262;2024-01-30T10:05:28;0.88;;;0.77;;
27822;SDS011;29019;47.630;8.262;2024-01-30T10:09:34;2.25;;;0.80;;
27822;SDS011;29019;47.630;8.262;2024-01-30T10:13:35;1.00;;;0.88;;
27822;SDS011;29019;47.630;8.262;2024-01-30T10:17:37;1.00;;;0.90;;
27822;SDS011;29019;47.630;8.262;2024-01-30T10:21:38;0.95;;;0.80;;
27822;SDS011;29019;47.630;8.262;2024-01-30T10:25:38;0.85;;;0.70;;
27822;SDS011;29019;47.630;8.262;2024-01-30T10:29:39;1.13;;;1.00;;
27822;SDS011;29019;47.630;8.262;2024-01-30T10:33:40;1.15;;;1.08;;
27822;SDS011;29019;47.630;8.262;2024-01-30T10:37:44;1.55;;;1.00;;
27822;SDS011;29019;47.630;8.262;2024-01-30T10:41:47;1.17;;;0.88;;
27822;SDS011;29019;47.630;8.262;2024-01-30T10:45:50;1.10;;;0.80;;
27822;SDS011;29019;47.630;8.262;2024-01-30T10:49:56;0.80;;;0.80;;
27822;SDS011;29019;47.630;8.262;2024-01-30T10:53:57;1.05;;;0.95;;
27822;SDS011;29019;47.630;8.262;2024-01-30T10:57:58;1.02;;;0.80;;
27822;SDS011;29019;47.630;8.262;2024-01-30T11:01:59;0.80;;;0.80;;
27822;SDS011;29019;47.630;8.262;2024-01-30T11:06:00;0.80;;;0.70;;
27822;SDS011;29019;47.630;8.262;2024-01-30T11:10:02;1.30;;;1.10;;
27822;SDS011;29019;47.630;8.262;2024-01-30T11:14:04;1.10;;;1.00;;
27822;SDS011;29019;47.630;8.262;2024-01-30T11:18:05;1.33;;;0.90;;
27822;SDS011;29019;47.630;8.262;2024-01-30T11:22:06;1.00;;;0.90;;
27822;SDS011;29019;47.630;8.262;2024-01-30T11:26:07;0.90;;;0.90;;
27822;SDS011;29019;47.630;8.262;2024-01-30T11:30:11;0.82;;;0.80;;
27822;SDS011;29019;47.630;8.262;2024-01-30T11:34:22;1.20;;;0.82;;
27822;SDS011;29019;47.630;8.262;2024-01-30T11:38:24;1.02;;;0.90;;
27822;SDS011;29019;47.630;8.262;2024-01-30T11:42:27;1.15;;;1.00;;
27822;SDS011;29019;47.630;8.262;2024-01-30T11:46:30;0.88;;;0.80;;
27822;SDS011;29019;47.630;8.262;2024-01-30T11:50:31;1.02;;;0.93;;
27822;SDS011;29019;47.630;8.262;2024-01-30T11:54:35;0.77;;;0.77;;
27822;SDS011;29019;47.630;8.262;2024-01-30T11:58:42;0.73;;;0.73;;
27822;SDS011;29019;47.630;8.262;2024-01-30T12:02:44;0.90;;;0.90;;
27822;SDS011;29019;47.630;8.262;2024-01-30T12:06:52;1.40;;;0.88;;
27822;SDS011;29019;47.630;8.262;2024-01-30T12:11:01;1.08;;;0.82;;
27822;SDS011;29019;47.630;8.262;2024-01-30T12:15:05;1.10;;;1.00;;
27822;SDS011;29019;47.630;8.262;2024-01-30T12:23:07;1.10;;;1.00;;
27822;SDS011;29019;47.630;8.262;2024-01-30T12:27:08;0.93;;;0.82;;
27822;SDS011;29019;47.630;8.262;2024-01-30T12:31:08;1.80;;;0.90;;
27822;SDS011;29019;47.630;8.262;2024-01-30T12:35:13;1.55;;;0.90;;
27822;SDS011;29019;47.630;8.262;2024-01-30T12:39:18;0.80;;;0.80;;
27822;SDS011;29019;47.630;8.262;2024-01-30T12:43:19;1.00;;;0.90;;
27822;SDS011;29019;47.630;8.262;2024-01-30T12:47:22;1.02;;;0.90;;
27822;SDS011;29019;47.630;8.262;2024-01-30T12:51:23;0.95;;;0.85;;
27822;SDS011;29019;47.630;8.262;2024-01-30T12:55:24;0.90;;;0.80;;
27822;SDS011;29019;47.630;8.262;2024-01-30T12:59:28;0.70;;;0.70;;
27822;SDS011;29019;47.630;8.262;2024-01-30T13:03:29;1.20;;;0.90;;
27822;SDS011;29019;47.630;8.262;2024-01-30T13:07:29;0.93;;;0.85;;
27822;SDS011;29019;47.630;8.262;2024-01-30T13:11:30;1.58;;;0.98;;
27822;SDS011;29019;47.630;8.262;2024-01-30T13:19:32;1.00;;;0.80;;
27822;SDS011;29019;47.630;8.262;2024-01-30T13:23:33;0.88;;;0.80;;
27822;SDS011;29019;47.630;8.262;2024-01-30T13:27:34;0.70;;;0.70;;
27822;SDS011;29019;47.630;8.262;2024-01-30T13:31:35;1.55;;;0.82;;
27822;SDS011;29019;47.630;8.262;2024-01-30T13:35:36;0.98;;;0.88;;
27822;SDS011;29019;47.630;8.262;2024-01-30T13:39:36;1.00;;;0.90;;
27822;SDS011;29019;47.630;8.262;2024-01-30T13:43:39;1.25;;;1.02;;
27822;SDS011;29019;47.630;8.262;2024-01-30T13:47:39;1.10;;;0.93;;
27822;SDS011;29019;47.630;8.262;2024-01-30T13:51:42;1.10;;;0.85;;
27822;SDS011;29019;47.630;8.262;2024-01-30T13:55:43;0.82;;;0.82;;
27822;SDS011;29019;47.630;8.262;2024-01-30T13:59:44;1.05;;;0.93;;
27822;SDS011;29019;47.630;8.262;2024-01-30T14:03:45;1.10;;;1.00;;
27822;SDS011;29019;47.630;8.262;2024-01-30T14:07:45;0.70;;;0.70;;
27822;SDS011;29019;47.630;8.262;2024-01-30T14:11:46;0.95;;;0.90;;
27822;SDS011;29019;47.630;8.262;2024-01-30T14:15:47;0.70;;;0.70;;
27822;SDS011;29019;47.630;8.262;2024-01-30T14:19:48;1.27;;;0.90;;
27822;SDS011;29019;47.630;8.262;2024-01-30T14:23:48;0.88;;;0.75;;
27822;SDS011;29019;47.630;8.262;2024-01-30T14:27:50;1.13;;;0.90;;
27822;SDS011;29019;47.630;8.262;2024-01-30T14:31:52;1.05;;;0.90;;
27822;SDS011;29019;47.630;8.262;2024-01-30T14:35:52;1.17;;;1.10;;
27822;SDS011;29019;47.630;8.262;2024-01-30T14:39:53;0.70;;;0.70;;
27822;SDS011;29019;47.630;8.262;2024-01-30T14:43:54;1.65;;;1.08;;
27822;SDS011;29019;47.630;8.262;2024-01-30T14:47:55;0.65;;;0.65;;
27822;SDS011;29019;47.630;8.262;2024-01-30T14:51:56;0.73;;;0.73;;
27822;SDS011;29019;47.630;8.262;2024-01-30T14:55:58;1.25;;;0.85;;
27822;SDS011;29019;47.630;8.262;2024-01-30T14:59:59;1.42;;;0.90;;
27822;SDS011;29019;47.630;8.262;2024-01-30T15:03:59;0.70;;;0.70;;
27822;SDS011;29019;47.630;8.262;2024-01-30T15:08:00;0.75;;;0.75;;
27822;SDS011;29019;47.630;8.262;2024-01-30T15:12:01;1.10;;;1.00;;
27822;SDS011;29019;47.630;8.262;2024-01-30T15:16:02;0.80;;;0.80;;
27822;SDS011;29019;47.630;8.262;2024-01-30T15:20:05;0.95;;;0.80;;
27822;SDS011;29019;47.630;8.262;2024-01-30T15:24:06;0.80;;;0.77;;
27822;SDS011;29019;47.630;8.262;2024-01-30T15:28:07;1.10;;;1.00;;
27822;SDS011;29019;47.630;8.262;2024-01-30T15:32:09;0.73;;;0.70;;
27822;SDS011;29019;47.630;8.262;2024-01-30T15:36:10;0.95;;;0.90;;
27822;SDS011;29019;47.630;8.262;2024-01-30T15:40:14;1.00;;;0.90;;
27822;SDS011;29019;47.630;8.262;2024-01-30T15:44:15;1.15;;;0.85;;
27822;SDS011;29019;47.630;8.262;2024-01-30T15:48:17;0.95;;;0.88;;
27822;SDS011;29019;47.630;8.262;2024-01-30T15:52:20;1.20;;;0.90;;
27822;SDS011;29019;47.630;8.262;2024-01-30T15:56:22;0.90;;;0.70;;
27822;SDS011;29019;47.630;8.262;2024-01-30T16:00:23;0.95;;;0.88;;
27822;SDS011;29019;47.630;8.262;2024-01-30T16:04:24;0.80;;;0.80;;
27822;SDS011;29019;47.630;8.262;2024-01-30T16:08:25;0.65;;;0.60;;
27822;SDS011;29019;47.630;8.262;2024-01-30T16:12:27;0.70;;;0.70;;
27822;SDS011;29019;47.630;8.262;2024-01-30T16:20:29;0.73;;;0.73;;
27822;SDS011;29019;47.630;8.262;2024-01-30T16:24:29;1.33;;;0.80;;
27822;SDS011;29019;47.630;8.262;2024-01-30T16:28:30;1.00;;;0.90;;
27822;SDS011;29019;47.630;8.262;2024-01-30T16:32:32;3.05;;;0.70;;
27822;SDS011;29019;47.630;8.262;2024-01-30T16:36:33;4.70;;;1.27;;
27822;SDS011;29019;47.630;8.262;2024-01-30T16:40:34;2.63;;;1.10;;
27822;SDS011;29019;47.630;8.262;2024-01-30T16:44:34;2.33;;;0.80;;
27822;SDS011;29019;47.630;8.262;2024-01-30T16:48:35;3.83;;;1.10;;
27822;SDS011;29019;47.630;8.262;2024-01-30T16:52:36;1.35;;;1.10;;
27822;SDS011;29019;47.630;8.262;2024-01-30T16:56:36;1.58;;;1.00;;
27822;SDS011;29019;47.630;8.262;2024-01-30T17:00:38;1.63;;;0.95;;
27822;SDS011;29019;47.630;8.262;2024-01-30T17:04:38;1.17;;;0.80;;
27822;SDS011;29019;47.630;8.262;2024-01-30T17:08:39;1.25;;;1.05;;
27822;SDS011;29019;47.630;8.262;2024-01-30T17:12:40;2.28;;;1.23;;
27822;SDS011;29019;47.630;8.262;2024-01-30T17:16:41;2.70;;;1.10;;
27822;SDS011;29019;47.630;8.262;2024-01-30T17:20:42;5.13;;;1.30;;
27822;SDS011;29019;47.630;8.262;2024-01-30T17:24:42;10.45;;;1.20;;
27822;SDS011;29019;47.630;8.262;2024-01-30T17:28:43;7.18;;;1.10;;
27822;SDS011;29019;47.630;8.262;2024-01-30T17:32:44;4.32;;;1.58;;
27822;SDS011;29019;47.630;8.262;2024-01-30T17:36:44;5.95;;;1.30;;
27822;SDS011;29019;47.630;8.262;2024-01-30T17:40:45;3.40;;;1.40;;
27822;SDS011;29019;47.630;8.262;2024-01-30T17:44:46;13.95;;;2.20;;
27822;SDS011;29019;47.630;8.262;2024-01-30T17:48:46;7.82;;;1.73;;
27822;SDS011;29019;47.630;8.262;2024-01-30T17:52:49;4.22;;;1.88;;
27822;SDS011;29019;47.630;8.262;2024-01-30T17:56:52;4.32;;;1.50;;
27822;SDS011;29019;47.630;8.262;2024-01-30T18:00:53;5.05;;;1.58;;
27822;SDS011;29019;47.630;8.262;2024-01-30T18:04:54;10.05;;;2.55;;
27822;SDS011;29019;47.630;8.262;2024-01-30T18:08:54;10.70;;;2.70;;
27822;SDS011;29019;47.630;8.262;2024-01-30T18:12:56;7.28;;;3.08;;
27822;SDS011;29019;47.630;8.262;2024-01-30T18:16:58;16.65;;;5.75;;
27822;SDS011;29019;47.630;8.262;2024-01-30T18:20:59;23.75;;;8.73;;
27822;SDS011;29019;47.630;8.262;2024-01-30T18:25:00;20.05;;;10.43;;
27822;SDS011;29019;47.630;8.262;2024-01-30T18:29:00;17.98;;;9.18;;
27822;SDS011;29019;47.630;8.262;2024-01-30T18:33:01;18.25;;;10.32;;
27822;SDS011;29019;47.630;8.262;2024-01-30T18:37:02;19.25;;;11.32;;
27822;SDS011;29019;47.630;8.262;2024-01-30T18:45:04;21.77;;;11.73;;
27822;SDS011;29019;47.630;8.262;2024-01-30T18:49:06;22.98;;;11.80;;
27822;SDS011;29019;47.630;8.262;2024-01-30T18:53:06;24.58;;;12.88;;
27822;SDS011;29019;47.630;8.262;2024-01-30T18:57:07;23.50;;;11.57;;
27822;SDS011;29019;47.630;8.262;2024-01-30T19:01:07;20.70;;;11.60;;
27822;SDS011;29019;47.630;8.262;2024-01-30T19:05:08;19.63;;;10.13;;
27822;SDS011;29019;47.630;8.262;2024-01-30T19:09:10;24.10;;;9.77;;
27822;SDS011;29019;47.630;8.262;2024-01-30T19:13:10;18.73;;;10.32;;
27822;SDS011;29019;47.630;8.262;2024-01-30T19:17:12;21.10;;;11.07;;
27822;SDS011;29019;47.630;8.262;2024-01-30T19:21:13;18.80;;;9.35;;
27822;SDS011;29019;47.630;8.262;2024-01-30T19:25:13;20.33;;;9.45;;
27822;SDS011;29019;47.630;8.262;2024-01-30T19:29:14;17.65;;;10.05;;
27822;SDS011;29019;47.630;8.262;2024-01-30T19:33:15;17.13;;;8.95;;
27822;SDS011;29019;47.630;8.262;2024-01-30T19:37:16;24.33;;;8.95;;
27822;SDS011;29019;47.630;8.262;2024-01-30T19:41:22;13.57;;;7.97;;
27822;SDS011;29019;47.630;8.262;2024-01-30T19:45:23;16.45;;;7.80;;
27822;SDS011;29019;47.630;8.262;2024-01-30T19:49:23;20.42;;;8.70;;
27822;SDS011;29019;47.630;8.262;2024-01-30T19:53:24;13.82;;;7.72;;
27822;SDS011;29019;47.630;8.262;2024-01-30T19:57:25;12.50;;;7.20;;
27822;SDS011;29019;47.630;8.262;2024-01-30T20:01:25;15.30;;;7.75;;
27822;SDS011;29019;47.630;8.262;2024-01-30T20:05:26;18.17;;;6.90;;
27822;SDS011;29019;47.630;8.262;2024-01-30T20:09:27;25.10;;;7.78;;
27822;SDS011;29019;47.630;8.262;2024-01-30T20:13:27;28.52;;;10.07;;
27822;SDS011;29019;47.630;8.262;2024-01-30T20:17:28;27.77;;;11.80;;
27822;SDS011;29019;47.630;8.262;2024-01-30T20:21:31;24.08;;;10.00;;
27822;SDS011;29019;47.630;8.262;2024-01-30T20:25:32;20.92;;;9.43;;
27822;SDS011;29019;47.630;8.262;2024-01-30T20:29:33;19.65;;;10.07;;
27822;SDS011;29019;47.630;8.262;2024-01-30T20:33:34;24.95;;;9.90;;
27822;SDS011;29019;47.630;8.262;2024-01-30T20:37:37;30.40;;;9.55;;
27822;SDS011;29019;47.630;8.262;2024-01-30T20:41:38;18.42;;;9.43;;
27822;SDS011;29019;47.630;8.262;2024-01-30T20:45:40;14.75;;;8.90;;
27822;SDS011;29019;47.630;8.262;2024-01-30T20:49:40;18.30;;;8.10;;
27822;SDS011;29019;47.630;8.262;2024-01-30T20:53:41;21.90;;;7.75;;
27822;SDS011;29019;47.630;8.262;2024-01-30T20:57:44;22.77;;;9.10;;
27822;SDS011;29019;47.630;8.262;2024-01-30T21:01:44;19.00;;;8.10;;
27822;SDS011;29019;47.630;8.262;2024-01-30T21:05:45;23.63;;;8.07;;
27822;SDS011;29019;47.630;8.262;2024-01-30T21:09:46;20.50;;;8.48;;
27822;SDS011;29019;47.630;8.262;2024-01-30T21:13:47;14.30;;;7.45;;
27822;SDS011;29019;47.630;8.262;2024-01-30T21:21:48;24.97;;;7.90;;
27822;SDS011;29019;47.630;8.262;2024-01-30T21:25:49;15.18;;;6.78;;
27822;SDS011;29019;47.630;8.262;2024-01-30T21:29:50;15.57;;;6.80;;
27822;SDS011;29019;47.630;8.262;2024-01-30T21:33:50;25.63;;;8.15;;
27822;SDS011;29019;47.630;8.262;2024-01-30T21:37:51;18.80;;;7.80;;
27822;SDS011;29019;47.630;8.262;2024-01-30T21:41:52;18.50;;;7.38;;
27822;SDS011;29019;47.630;8.262;2024-01-30T21:45:53;15.35;;;7.57;;
27822;SDS011;29019;47.630;8.262;2024-01-30T21:49:54;19.38;;;6.95;;
27822;SDS011;29019;47.630;8.262;2024-01-30T21:53:55;15.25;;;6.90;;
27822;SDS011;29019;47.630;8.262;2024-01-30T21:57:55;13.13;;;6.88;;
27822;SDS011;29019;47.630;8.262;2024-01-30T22:01:56;10.63;;;6.13;;
27822;SDS011;29019;47.630;8.262;2024-01-30T22:05:57;15.57;;;6.60;;
27822;SDS011;29019;47.630;8.262;2024-01-30T22:09:58;16.90;;;7.07;;
27822;SDS011;29019;47.630;8.262;2024-01-30T22:13:58;12.50;;;5.97;;
27822;SDS011;29019;47.630;8.262;2024-01-30T22:18:00;14.80;;;6.85;;
27822;SDS011;29019;47.630;8.262;2024-01-30T22:22:00;15.18;;;6.28;;
27822;SDS011;29019;47.630;8.262;2024-01-30T22:26:02;14.77;;;6.03;;
27822;SDS011;29019;47.630;8.262;2024-01-30T22:30:02;13.90;;;5.97;;
27822;SDS011;29019;47.630;8.262;2024-01-30T22:34:04;12.75;;;5.28;;
27822;SDS011;29019;47.630;8.262;2024-01-30T22:38:04;10.18;;;5.40;;
27822;SDS011;29019;47.630;8.262;2024-01-30T22:42:07;14.73;;;5.80;;
27822;SDS011;29019;47.630;8.262;2024-01-30T22:46:08;13.65;;;5.70;;
27822;SDS011;29019;47.630;8.262;2024-01-30T22:50:09;13.05;;;5.97;;
27822;SDS011;29019;47.630;8.262;2024-01-30T22:54:10;11.85;;;5.40;;
27822;SDS011;29019;47.630;8.262;2024-01-30T22:58:10;9.93;;;5.18;;
27822;SDS011;29019;47.630;8.262;2024-01-30T23:02:11;11.45;;;5.85;;
27822;SDS011;29019;47.630;8.262;2024-01-30T23:06:12;12.93;;;5.32;;
27822;SDS011;29019;47.630;8.262;2024-01-30T23:10:12;8.63;;;5.07;;
27822;SDS011;29019;47.630;8.262;2024-01-30T23:14:13;11.80;;;5.38;;
27822;SDS011;29019;47.630;8.262;2024-01-30T23:18:14;12.38;;;5.80;;
27822;SDS011;29019;47.630;8.262;2024-01-30T23:22:15;10.48;;;5.35;;
27822;SDS011;29019;47.630;8.262;2024-01-30T23:30:17;10.90;;;4.53;;
27822;SDS011;29019;47.630;8.262;2024-01-30T23:34:17;10.27;;;5.30;;
27822;SDS011;29019;47.630;8.262;2024-01-30T23:38:18;13.65;;;5.03;;
27822;SDS011;29019;47.630;8.262;2024-01-30T23:42:19;10.18;;;4.50;;
27822;SDS011;29019;47.630;8.262;2024-01-30T23:46:19;7.80;;;4.53;;
27822;SDS011;29019;47.630;8.262;2024-01-30T23:50:20;9.50;;;5.32;;
27822;SDS011;29019;47.630;8.262;2024-01-30T23:54:21;9.90;;;4.50;;
27822;SDS011;29019;47.630;8.262;2024-01-30T23:58:21;11.23;;;4.70;;
